AviationCorner.net - Fotografía aeronáutica - Cessna 500 Citation

2015 vistas



Foto anterior (puedes usar también cursor izquierda)  
  Avión  
Airnor
Cessna 500 Citation (EC-IBA)  
  Fecha y lugar  
A Coruña (LCG/LECO) (España)  Información sobre el aeropuerto Aeropuertos cercanos Mostrar localización del aeropuerto
26 de julio de 2012
  Fotógrafo  
  Comentarios  
Saliendo de la 21 como vuelo ambulancia.

En final de la 17 a primera hora de la mañana 6:38 hora local ( UTC+2 ), esta Citation con una meteo desfavorable se estrelló a pocos km de la pista en Santiago.

LEST 020500Z 00000KT 1000 R17/0300V0600N R35/0325N BCFG FEW006 13/13
Q1019 NOSIG=
LEST 020430Z 00000KT 5000 R17/0450V1700U BR FEW006 13/13 Q1019 NOSIG= LEST 020400Z 00000KT 5000 BR FEW006 13/13 Q1019 NOSIG=

DEP a la tripulación, condolencias a la familia y para Airnor.
4 votos  Pulsa para ver los votos
Añadir a un álbum  |  Corregir datos  |  Búsqueda filtrada  |  In English
  Foto siguiente (Puedes usar también cursor derecha)

 Esta foto ha sido vista 2015 veces desde el 2 de agosto de 2012. Ver información Exif 



Votar como foto Cinco Estrellas (Los votos serán públicos)

Cinco Estrellas


Otras fotos populares de este fotógrafo
Haz click para ampliar Haz click para ampliar Haz click para ampliar Haz click para ampliar Haz click para ampliar Haz click para ampliar

Comentarios
Montserrat Pin

02/08/2012 14:09:23

muy oportuno josé luis!
Francisco Bonilla Torres

02/08/2012 18:18:59

Descansen en Paz.
Rafael Alvarez Cacho- www.aviaciondigital.com

02/08/2012 18:37:51

D.E.P.
Vidas que salvan vidas.
Mis condolencias a los familiaes de los fallecidos.
CarlosEnamorado

02/08/2012 23:18:28

Gran captura la de aquel día.
Mis más sentido pésame a las dos familias. Descansen en paz eternamente.
Javier Marí

03/08/2012 09:45:18

D.E.P
Mi sentido pésame a la familia
pdlcasas35

03/08/2012 10:14:50

Fueron a salvar una vida y no regresaron. Mis más sincero pésame a las familias.D.E.P.
Jordi Rull Dalmau.Spotters BCN-El Prat

03/08/2012 10:53:26

Siempre es una gran pena el hecho de perder la vida, pero en el caso de estas personas que tanto ayudan para salvar vidas, lo es todavía más. Un sincero pésame a sus familiares.
Pablo Vidal

03/08/2012 12:55:40

Me uno al dolor por la pérdida de dos héroes.
D.E.P.

Portada · Buscar fotos · Álbumes · Foro · Noticias · Contacto · Equipo · Privacidad · In English